Time;durP1;ratioP1;P1;durP2;ratioP2;P2;SDS_P1;SDS_P2;PMS_P1;PMS_P2;Temp;Humidity;BMP_temperature;BMP_pressure;BME280_temperature;BME280_humidity;BME280_pressure;Samples;Min_cycle;Max_cycle;Signal;HPM_P1;HPM_P2
2021/10/29 00:02:21;;;;;;;;;;;;;;;;;;5030214;28;20028;-85
2021/10/29 00:04:58;;;;;;;12.10;3.53;;;;;;;;;;5029786;28;19978;-84
2021/10/29 00:07:24;;;;;;;11.50;3.97;;;;;;;;;;5029661;28;20106;-87
2021/10/29 00:09:50;;;;;;;;;;;;;;;;;;5030188;28;20040;-86
2021/10/29 00:12:18;;;;;;;11.65;4.03;;;;;;;;;;5030543;28;19921;-86
2021/10/29 00:14:44;;;;;;;9.93;3.40;;;;;;;;;;5024016;28;20037;-87
2021/10/29 00:17:11;;;;;;;;;;;;;;;;;;5026758;28;20087;-86
2021/10/29 00:19:37;;;;;;;7.68;3.03;;;;;;;;;;5026977;28;19920;-86
2021/10/29 00:22:03;;;;;;;;;;;;;;;;;;5025883;28;20033;-86
2021/10/29 00:24:30;;;;;;;8.80;3.17;;;;;;;;;;5031121;28;19947;-86
2021/10/29 00:27:22;;;;;;;10.40;3.25;;;;;;;;;;5025560;28;20709;-88
2021/10/29 00:29:48;;;;;;;9.90;3.70;;;;;;;;;;5016971;28;20029;-85
2021/10/29 00:32:14;;;;;;;9.10;3.22;;;;;;;;;;5018673;28;20045;-83
2021/10/29 00:34:41;;;;;;;8.50;3.42;;;;;;;;;;5017282;28;20571;-82
2021/10/29 00:37:07;;;;;;;8.85;2.95;;;;;;;;;;5021055;28;20042;-83
2021/10/29 00:39:33;;;;;;;9.65;3.85;;;;;;;;;;5023868;28;20033;-84
2021/10/29 00:41:59;;;;;;;10.43;3.20;;;;;;;;;;5014800;28;20033;-83
2021/10/29 00:44:26;;;;;;;9.73;3.58;;;;;;;;;;5021009;28;20488;-83
2021/10/29 00:46:52;;;;;;;9.18;3.55;;;;;;;;;;5022535;28;20346;-83
2021/10/29 00:49:19;;;;;;;;;;;;;;;;;;5023911;28;20514;-82
2021/10/29 00:51:45;;;;;;;9.02;3.30;;;;;;;;;;5019805;28;20085;-82
2021/10/29 00:54:12;;;;;;;10.00;3.42;;;;;;;;;;5020548;28;20045;-82
2021/10/29 00:56:38;;;;;;;10.88;3.10;;;;;;;;;;5020118;28;20037;-83
2021/10/29 00:59:05;;;;;;;10.85;3.60;;;;;;;;;;5027075;28;20522;-82
2021/10/29 01:01:31;;;;;;;9.60;3.20;;;;;;;;;;5018953;28;20507;-82
2021/10/29 01:03:57;;;;;;;;;;;;;;;;;;5017959;28;21647;-82
2021/10/29 01:06:24;;;;;;;7.75;3.00;;;;;;;;;;5028933;28;20674;-85
2021/10/29 01:08:50;;;;;;;8.55;2.75;;;;;;;;;;5015394;28;20037;-83
2021/10/29 01:11:20;;;;;;;9.88;2.85;;;;;;;;;;5022686;28;20910;-83
2021/10/29 01:13:50;;;;;;;9.10;3.00;;;;;;;;;;5025229;28;20048;-84
2021/10/29 01:16:16;;;;;;;7.97;3.03;;;;;;;;;;5027828;28;20085;-83
2021/10/29 01:18:43;;;;;;;10.05;3.10;;;;;;;;;;5030205;28;20048;-83
2021/10/29 01:21:10;;;;;;;7.22;2.30;;;;;;;;;;5027226;28;20033;-84
2021/10/29 01:23:37;;;;;;;8.23;2.50;;;;;;;;;;5022524;28;20033;-83
2021/10/29 01:26:04;;;;;;;8.60;2.67;;;;;;;;;;5029277;28;20132;-83
2021/10/29 01:28:30;;;;;;;7.65;2.55;;;;;;;;;;5020871;28;20029;-84
2021/10/29 01:30:57;;;;;;;9.05;2.80;;;;;;;;;;5023554;28;20033;-84
2021/10/29 01:33:23;;;;;;;9.60;2.78;;;;;;;;;;5027603;28;20036;-84
2021/10/29 01:35:49;;;;;;;9.23;3.15;;;;;;;;;;5016874;28;20111;-83
2021/10/29 01:38:15;;;;;;;;;;;;;;;;;;5025115;28;20070;-83
2021/10/29 01:40:41;;;;;;;8.13;2.70;;;;;;;;;;5025085;28;19916;-84
2021/10/29 01:43:07;;;;;;;8.95;2.92;;;;;;;;;;5021042;28;20143;-82
2021/10/29 01:45:34;;;;;;;8.18;2.70;;;;;;;;;;5025528;28;20044;-82
2021/10/29 01:48:00;;;;;;;8.90;2.60;;;;;;;;;;5020546;28;20114;-83
2021/10/29 01:50:26;;;;;;;;;;;;;;;;;;5023443;28;20031;-82
2021/10/29 01:52:52;;;;;;;7.75;2.45;;;;;;;;;;5022313;28;19913;-83
2021/10/29 01:55:19;;;;;;;7.22;2.58;;;;;;;;;;5023847;28;20041;-83
2021/10/29 01:57:45;;;;;;;8.45;3.05;;;;;;;;;;5019788;28;20037;-84
2021/10/29 02:00:12;;;;;;;9.35;2.90;;;;;;;;;;5027280;28;20030;-82
2021/10/29 02:02:40;;;;;;;6.72;2.47;;;;;;;;;;5015616;28;20061;-83
2021/10/29 02:05:07;;;;;;;10.07;2.97;;;;;;;;;;5007676;28;20041;-83
2021/10/29 02:07:33;;;;;;;10.43;2.85;;;;;;;;;;5026356;28;20313;-81
2021/10/29 02:09:59;;;;;;;;;;;;;;;;;;5001770;28;20094;-83
2021/10/29 02:12:26;;;;;;;7.90;2.75;;;;;;;;;;5006550;28;19917;-83
2021/10/29 02:14:52;;;;;;;10.10;2.97;;;;;;;;;;4999681;28;20034;-83
2021/10/29 02:17:19;;;;;;;7.55;2.75;;;;;;;;;;5004766;28;20030;-85
2021/10/29 02:19:45;;;;;;;8.60;2.60;;;;;;;;;;5006753;28;20029;-83
2021/10/29 02:22:11;;;;;;;9.05;2.75;;;;;;;;;;5007217;28;20040;-85
2021/10/29 02:24:37;;;;;;;9.88;2.88;;;;;;;;;;5000220;28;20038;-81
2021/10/29 02:27:04;;;;;;;9.27;2.80;;;;;;;;;;5028992;28;20347;-83
2021/10/29 02:29:31;;;;;;;9.32;2.85;;;;;;;;;;5023764;28;20037;-83
2021/10/29 02:31:57;;;;;;;8.85;2.78;;;;;;;;;;5019203;28;20044;-81
2021/10/29 02:34:24;;;;;;;9.45;2.90;;;;;;;;;;5004385;28;20026;-85
2021/10/29 02:36:50;;;;;;;13.25;2.85;;;;;;;;;;5000578;28;20106;-82
2021/10/29 02:39:17;;;;;;;7.70;2.35;;;;;;;;;;5007583;28;20183;-82
2021/10/29 02:41:43;;;;;;;8.23;2.75;;;;;;;;;;5008583;28;20151;-81
2021/10/29 02:44:09;;;;;;;7.18;2.28;;;;;;;;;;5022071;28;20038;-83
2021/10/29 02:46:37;;;;;;;8.68;2.80;;;;;;;;;;5007063;28;20017;-83
2021/10/29 02:49:03;;;;;;;7.53;2.35;;;;;;;;;;5026444;28;20042;-82
2021/10/29 02:51:30;;;;;;;8.20;2.55;;;;;;;;;;5029663;28;20075;-84
2021/10/29 02:53:57;;;;;;;7.15;2.58;;;;;;;;;;5013751;28;20074;-83
2021/10/29 02:56:23;;;;;;;7.22;2.22;;;;;;;;;;5016443;28;20040;-83
2021/10/29 02:58:49;;;;;;;7.47;2.58;;;;;;;;;;5044875;28;20024;-84
2021/10/29 03:01:15;;;;;;;;;;;;;;;;;;5013625;28;20132;-83
2021/10/29 03:03:41;;;;;;;8.02;2.58;;;;;;;;;;5006963;28;19924;-84
2021/10/29 03:06:08;;;;;;;8.90;2.65;;;;;;;;;;5020450;28;20040;-83
2021/10/29 03:08:34;;;;;;;6.13;2.33;;;;;;;;;;5016742;28;20112;-82
2021/10/29 03:11:00;;;;;;;9.18;2.78;;;;;;;;;;5005424;28;20026;-82
2021/10/29 03:13:27;;;;;;;7.85;2.60;;;;;;;;;;5000399;28;20039;-83
2021/10/29 03:15:53;;;;;;;6.72;2.33;;;;;;;;;;5002107;28;20052;-83
2021/10/29 03:18:20;;;;;;;7.97;2.60;;;;;;;;;;5006624;28;20399;-83
2021/10/29 03:20:47;;;;;;;5.55;1.92;;;;;;;;;;5005209;28;20033;-84
2021/10/29 03:23:15;;;;;;;8.20;2.80;;;;;;;;;;5026560;28;20104;-83
2021/10/29 03:25:42;;;;;;;10.00;3.10;;;;;;;;;;5006351;28;20025;-83
2021/10/29 03:28:08;;;;;;;8.20;2.58;;;;;;;;;;5002443;28;20056;-83
2021/10/29 03:30:35;;;;;;;6.85;2.40;;;;;;;;;;5009256;28;20045;-83
2021/10/29 03:33:01;;;;;;;6.40;2.17;;;;;;;;;;5002898;28;20045;-83
2021/10/29 03:35:27;;;;;;;7.00;2.50;;;;;;;;;;5013168;28;20120;-82
2021/10/29 03:40:44;;;;;;;10.73;2.78;;;;;;;;;;5005579;28;20061;-84
2021/10/29 03:43:32;;;;;;;8.77;2.65;;;;;;;;;;5023959;28;20037;-82
2021/10/29 03:48:32;;;;;;;8.48;2.55;;;;;;;;;;5019804;28;20026;-83
2021/10/29 03:55:59;;;;;;;7.88;2.63;;;;;;;;;;5035412;28;20926;-83
2021/10/29 03:58:26;;;;;;;9.52;2.95;;;;;;;;;;5013517;28;20350;-83
2021/10/29 04:00:52;;;;;;;10.50;2.53;;;;;;;;;;5003456;28;20057;-83
2021/10/29 04:03:18;;;;;;;6.75;2.17;;;;;;;;;;5006746;28;20080;-84
2021/10/29 04:05:45;;;;;;;8.40;2.30;;;;;;;;;;5006036;28;20505;-83
2021/10/29 04:08:12;;;;;;;7.85;2.30;;;;;;;;;;5010319;28;20038;-82
2021/10/29 04:10:43;;;;;;;7.28;2.30;;;;;;;;;;5025114;28;20044;-82
2021/10/29 04:13:11;;;;;;;7.20;2.47;;;;;;;;;;5004674;28;20115;-82
2021/10/29 04:15:40;;;;;;;8.60;2.60;;;;;;;;;;5013408;28;20036;-81
2021/10/29 04:18:06;;;;;;;9.90;3.22;;;;;;;;;;5016849;28;20551;-81
2021/10/29 04:20:32;;;;;;;12.05;3.35;;;;;;;;;;5007395;28;20038;-82
2021/10/29 04:22:58;;;;;;;9.63;3.65;;;;;;;;;;5002281;28;20037;-83
2021/10/29 04:25:25;;;;;;;7.53;3.10;;;;;;;;;;5009461;28;20512;-82
2021/10/29 04:27:59;;;;;;;10.02;3.22;;;;;;;;;;5003289;28;20033;-83
2021/10/29 04:30:28;;;;;;;10.00;2.95;;;;;;;;;;5021443;28;20028;-82
2021/10/29 04:32:54;;;;;;;9.10;2.63;;;;;;;;;;5014260;28;20052;-83
2021/10/29 04:35:20;;;;;;;8.07;2.58;;;;;;;;;;5005739;28;20053;-83
2021/10/29 04:37:47;;;;;;;9.60;2.72;;;;;;;;;;5003606;28;20033;-82
2021/10/29 04:40:13;;;;;;;9.75;3.30;;;;;;;;;;5008077;28;20107;-84
2021/10/29 04:42:40;;;;;;;9.95;3.35;;;;;;;;;;5003558;28;20120;-83
2021/10/29 04:45:07;;;;;;;8.55;3.40;;;;;;;;;;5007967;28;20151;-83
2021/10/29 04:47:33;;;;;;;10.98;3.75;;;;;;;;;;4999310;28;20040;-82
2021/10/29 04:50:00;;;;;;;10.60;3.35;;;;;;;;;;5002744;28;20029;-85
2021/10/29 04:52:26;;;;;;;9.57;3.38;;;;;;;;;;5007787;28;20009;-83
2021/10/29 04:54:53;;;;;;;;;;;;;;;;;;4997491;28;20158;-83
2021/10/29 04:57:19;;;;;;;12.63;4.00;;;;;;;;;;5004630;28;19928;-84
2021/10/29 04:59:45;;;;;;;10.18;3.30;;;;;;;;;;5010130;28;20128;-83
2021/10/29 05:02:12;;;;;;;10.80;3.78;;;;;;;;;;5002316;28;20033;-84
2021/10/29 05:04:39;;;;;;;11.40;4.28;;;;;;;;;;5004954;28;20440;-81
2021/10/29 05:07:05;;;;;;;10.20;4.40;;;;;;;;;;5033000;28;20033;-80
2021/10/29 05:09:31;;;;;;;;;;;;;;;;;;5011069;28;20042;-80
2021/10/29 05:11:57;;;;;;;13.20;5.30;;;;;;;;;;5007843;28;19947;-81
2021/10/29 05:14:23;;;;;;;10.10;4.20;;;;;;;;;;5012768;28;20104;-80
2021/10/29 05:16:52;;;;;;;11.18;3.70;;;;;;;;;;4993297;28;20029;-83
2021/10/29 05:19:18;;;;;;;11.18;4.55;;;;;;;;;;5003932;28;20168;-80
2021/10/29 05:21:45;;;;;;;11.02;4.38;;;;;;;;;;4993816;28;20096;-81
2021/10/29 05:24:11;;;;;;;13.55;4.95;;;;;;;;;;5012568;28;20048;-82
2021/10/29 05:26:38;;;;;;;11.65;4.57;;;;;;;;;;5022289;28;20037;-81
2021/10/29 05:29:05;;;;;;;12.77;4.10;;;;;;;;;;5015515;28;20083;-80
2021/10/29 05:31:31;;;;;;;11.13;4.10;;;;;;;;;;5003500;28;20029;-82
2021/10/29 05:33:57;;;;;;;;;;;;;;;;;;4998066;28;20148;-80
2021/10/29 05:36:24;;;;;;;10.63;4.13;;;;;;;;;;5000658;28;19921;-82
2021/10/29 05:38:50;;;;;;;10.90;3.65;;;;;;;;;;5012766;28;20037;-83
2021/10/29 05:41:17;;;;;;;10.52;4.45;;;;;;;;;;5017011;28;20039;-81
2021/10/29 05:43:43;;;;;;;12.07;4.53;;;;;;;;;;4997536;28;20053;-83
2021/10/29 05:46:09;;;;;;;13.23;5.13;;;;;;;;;;5001644;28;20041;-83
2021/10/29 05:48:38;;;;;;;12.82;4.57;;;;;;;;;;5011432;28;20033;-82
2021/10/29 05:51:11;;;;;;;9.52;4.00;;;;;;;;;;5021706;28;20168;-83
2021/10/29 05:56:05;;;;;;;8.82;3.65;;;;;;;;;;4997402;28;20276;-83
2021/10/29 05:58:32;;;;;;;10.52;3.92;;;;;;;;;;5020149;28;20104;-83
2021/10/29 06:00:58;;;;;;;10.35;4.03;;;;;;;;;;5013319;28;20112;-83
2021/10/29 06:03:24;;;;;;;;;;;;;;;;;;5018698;28;20029;-83
2021/10/29 06:05:50;;;;;;;10.38;3.60;;;;;;;;;;5009805;28;20285;-83
2021/10/29 06:08:17;;;;;;;12.48;4.43;;;;;;;;;;4997446;28;20029;-81
2021/10/29 06:10:43;;;;;;;13.13;4.57;;;;;;;;;;5016807;28;20042;-82
2021/10/29 06:13:09;;;;;;;9.68;4.00;;;;;;;;;;5018312;28;20038;-81
2021/10/29 06:15:37;;;;;;;11.32;4.47;;;;;;;;;;5007040;28;20121;-82
2021/10/29 06:18:03;;;;;;;14.65;5.20;;;;;;;;;;4999130;28;20811;-82
2021/10/29 06:20:31;;;;;;;15.20;6.07;;;;;;;;;;5005617;28;20559;-82
2021/10/29 06:22:57;;;;;;;12.35;4.18;;;;;;;;;;5015983;28;22063;-82
2021/10/29 06:25:29;;;;;;;12.73;4.50;;;;;;;;;;4999705;28;20080;-82
2021/10/29 06:30:44;;;;;;;10.68;4.00;;;;;;;;;;4995287;28;20210;-82
2021/10/29 06:33:12;;;;;;;8.38;3.28;;;;;;;;;;5000225;28;20223;-82
2021/10/29 06:35:41;;;;;;;9.05;3.30;;;;;;;;;;5001975;28;20049;-83
2021/10/29 06:38:11;;;;;;;10.70;3.00;;;;;;;;;;5019488;28;20056;-85
2021/10/29 06:40:44;;;;;;;8.80;2.90;;;;;;;;;;5007711;28;20544;-84
2021/10/29 06:43:20;;;;;;;11.32;3.00;;;;;;;;;;5004366;28;20038;-84
2021/10/29 07:05:16;;;;;;;12.05;4.90;;;;;;;;;;4973435;28;20038;-84
2021/10/29 07:11:39;;;;;;;10.00;3.85;;;;;;;;;;5005867;28;20039;-82
2021/10/29 07:40:44;;;;;;;15.48;7.15;;;;;;;;;;5026052;28;20124;-82
2021/10/29 07:43:13;;;;;;;23.88;7.72;;;;;;;;;;5005841;28;20108;-83
2021/10/29 07:45:40;;;;;;;19.00;7.07;;;;;;;;;;5015393;28;20033;-81
2021/10/29 07:48:07;;;;;;;22.33;7.95;;;;;;;;;;5014736;28;20560;-82
2021/10/29 07:50:33;;;;;;;17.35;7.50;;;;;;;;;;5004672;28;20083;-83
2021/10/29 07:53:00;;;;;;;18.70;7.30;;;;;;;;;;5000945;28;20030;-82
2021/10/29 07:55:27;;;;;;;22.60;7.68;;;;;;;;;;5003054;28;20042;-83
2021/10/29 07:58:00;;;;;;;17.88;7.03;;;;;;;;;;5002254;28;20084;-82
2021/10/29 08:00:26;;;;;;;20.33;8.82;;;;;;;;;;5007218;28;20026;-82
2021/10/29 08:02:54;;;;;;;23.20;7.70;;;;;;;;;;5009156;28;20144;-83
2021/10/29 08:05:21;;;;;;;20.15;8.68;;;;;;;;;;5009074;28;20052;-83
2021/10/29 08:07:47;;;;;;;18.30;8.07;;;;;;;;;;5009791;28;20029;-82
2021/10/29 08:10:14;;;;;;;21.05;8.80;;;;;;;;;;5030828;28;20032;-84
2021/10/29 08:12:41;;;;;;;16.67;7.05;;;;;;;;;;5012479;28;20040;-81
2021/10/29 08:15:08;;;;;;;16.40;7.70;;;;;;;;;;5008766;28;20071;-82
2021/10/29 08:17:36;;;;;;;18.30;8.20;;;;;;;;;;5010320;28;20133;-82
2021/10/29 08:20:05;;;;;;;20.45;8.00;;;;;;;;;;5006394;28;20026;-81
2021/10/29 08:22:32;;;;;;;21.55;7.88;;;;;;;;;;5004908;28;20026;-81
2021/10/29 08:24:58;;;;;;;15.60;6.88;;;;;;;;;;4996770;28;21140;-82
2021/10/29 08:27:25;;;;;;;24.23;12.30;;;;;;;;;;5003120;28;20065;-83
2021/10/29 08:29:51;;;;;;;23.83;12.07;;;;;;;;;;5011117;28;20189;-83
2021/10/29 08:32:18;;;;;;;22.85;12.15;;;;;;;;;;5025250;28;22019;-83
2021/10/29 08:34:44;;;;;;;29.98;16.95;;;;;;;;;;5002945;28;20499;-82
2021/10/29 08:37:11;;;;;;;28.10;15.63;;;;;;;;;;5012818;28;20037;-83
2021/10/29 08:39:38;;;;;;;26.35;16.38;;;;;;;;;;5009830;28;20113;-82
2021/10/29 08:42:05;;;;;;;38.92;25.52;;;;;;;;;;5037271;28;20030;-82
2021/10/29 08:44:32;;;;;;;31.98;19.63;;;;;;;;;;5029775;28;20045;-81
2021/10/29 08:47:01;;;;;;;26.73;17.23;;;;;;;;;;5001368;28;20155;-83
2021/10/29 08:49:28;;;;;;;26.60;15.93;;;;;;;;;;5005017;28;20469;-81
2021/10/29 08:51:54;;;;;;;25.75;15.30;;;;;;;;;;4999575;28;20104;-84
2021/10/29 08:54:21;;;;;;;24.10;14.95;;;;;;;;;;5014583;28;20064;-83
2021/10/29 08:56:47;;;;;;;27.40;15.05;;;;;;;;;;5011269;28;20124;-83
2021/10/29 08:59:18;;;;;;;24.25;14.85;;;;;;;;;;5011151;28;20049;-82
2021/10/29 09:01:50;;;;;;;29.65;16.95;;;;;;;;;;5005012;28;20022;-82
2021/10/29 09:04:21;;;;;;;31.50;20.48;;;;;;;;;;5031696;28;20253;-82
2021/10/29 09:16:10;;;;;;;35.90;25.20;;;;;;;;;;5017589;28;20787;-83
2021/10/29 09:33:59;;;;;;;33.58;23.80;;;;;;;;;;4978198;28;20088;-82
2021/10/29 09:36:30;;;;;;;31.33;22.17;;;;;;;;;;4965648;28;20034;-82
2021/10/29 09:38:57;;;;;;;32.10;21.17;;;;;;;;;;4982107;28;20046;-82
2021/10/29 09:41:24;;;;;;;33.47;23.00;;;;;;;;;;4966249;28;20117;-82
2021/10/29 09:43:55;;;;;;;33.00;19.50;;;;;;;;;;4957454;28;20029;-83
2021/10/29 09:46:31;;;;;;;28.85;19.38;;;;;;;;;;4979487;28;20029;-84
2021/10/29 09:49:06;;;;;;;30.27;19.50;;;;;;;;;;4959507;28;20432;-83
2021/10/29 09:51:36;;;;;;;22.45;14.07;;;;;;;;;;4958345;28;20500;-82
2021/10/29 09:54:14;;;;;;;18.10;10.73;;;;;;;;;;4973160;28;20264;-83
2021/10/29 09:56:55;;;;;;;18.48;9.07;;;;;;;;;;4979083;28;20290;-83
2021/10/29 09:59:22;;;;;;;18.67;8.60;;;;;;;;;;5019360;28;20029;-82
2021/10/29 10:01:49;;;;;;;14.65;7.30;;;;;;;;;;5013183;28;20147;-82
2021/10/29 10:04:17;;;;;;;15.70;7.15;;;;;;;;;;5019352;28;20233;-83
2021/10/29 10:06:44;;;;;;;13.88;6.40;;;;;;;;;;5014707;28;20163;-82
2021/10/29 10:09:10;;;;;;;10.85;4.65;;;;;;;;;;5015795;28;20351;-81
2021/10/29 10:11:43;;;;;;;14.25;5.30;;;;;;;;;;5012142;28;20318;-81
2021/10/29 10:14:10;;;;;;;11.52;4.93;;;;;;;;;;5010114;28;20059;-81
2021/10/29 10:16:39;;;;;;;14.35;6.93;;;;;;;;;;5018313;28;20101;-83
2021/10/29 10:19:06;;;;;;;12.27;5.10;;;;;;;;;;5013062;28;20033;-81
2021/10/29 10:21:38;;;;;;;12.95;5.32;;;;;;;;;;5016281;28;20037;-80
2021/10/29 10:24:10;;;;;;;12.52;4.30;;;;;;;;;;5015161;28;20036;-82
2021/10/29 10:27:04;;;;;;;8.32;3.15;;;;;;;;;;5015533;28;20037;-82
2021/10/29 10:40:56;;;;;;;9.80;3.67;;;;;;;;;;5019699;28;20153;-83
2021/10/29 10:46:20;;;;;;;12.43;4.03;;;;;;;;;;5018337;28;20592;-82
2021/10/29 10:54:17;;;;;;;10.10;2.40;;;;;;;;;;5023642;28;20420;-82
2021/10/29 10:57:00;;;;;;;8.93;2.15;;;;;;;;;;5015552;28;20124;-82
2021/10/29 11:03:11;;;;;;;8.63;2.08;;;;;;;;;;5021505;28;20125;-81
2021/10/29 11:05:32;;;;;;;8.00;1.98;;;;;;;;;;5031983;28;20041;-82
2021/10/29 11:10:58;;;;;;;8.82;2.25;;;;;;;;;;5023178;28;20064;-82
2021/10/29 11:13:26;;;;;;;8.02;2.30;;;;;;;;;;5019151;28;20032;-82
2021/10/29 11:16:02;;;;;;;9.20;2.58;;;;;;;;;;5024860;28;20045;-86
2021/10/29 11:18:32;;;;;;;7.72;2.20;;;;;;;;;;5018329;28;20053;-81
2021/10/29 11:21:06;;;;;;;8.07;2.17;;;;;;;;;;5012950;28;20075;-79
2021/10/29 11:23:34;;;;;;;8.60;1.95;;;;;;;;;;5017985;28;20376;-80
2021/10/29 11:26:09;;;;;;;8.88;2.42;;;;;;;;;;5016458;28;20347;-80
2021/10/29 11:28:35;;;;;;;9.80;2.28;;;;;;;;;;5024820;28;20048;-81
2021/10/29 11:31:02;;;;;;;9.15;2.10;;;;;;;;;;5016494;28;20622;-79
2021/10/29 11:33:28;;;;;;;8.60;2.05;;;;;;;;;;5020202;28;20059;-83
2021/10/29 11:35:58;;;;;;;8.82;2.85;;;;;;;;;;5014173;28;20580;-83
2021/10/29 11:38:24;;;;;;;8.00;2.17;;;;;;;;;;5016196;28;20033;-78
2021/10/29 11:40:52;;;;;;;10.73;2.47;;;;;;;;;;5013047;28;20754;-79
2021/10/29 11:43:22;;;;;;;10.18;2.65;;;;;;;;;;5015270;28;20056;-81
2021/10/29 11:45:48;;;;;;;8.05;2.08;;;;;;;;;;5011497;28;20034;-79
2021/10/29 11:48:14;;;;;;;7.55;1.80;;;;;;;;;;5017133;28;20033;-79
2021/10/29 11:50:41;;;;;;;6.35;1.45;;;;;;;;;;5010528;28;20040;-78
2021/10/29 11:53:07;;;;;;;7.03;2.50;;;;;;;;;;5014461;28;20104;-79
2021/10/29 11:55:54;;;;;;;6.10;1.50;;;;;;;;;;5016670;28;20771;-79
2021/10/29 11:58:37;;;;;;;;;;;;;;;;;;5020467;28;20144;-82
2021/10/29 12:09:31;;;;;;;5.78;1.10;;;;;;;;;;5016623;28;20071;-80
2021/10/29 12:12:07;;;;;;;8.00;1.52;;;;;;;;;;5011058;28;20030;-79
2021/10/29 12:14:35;;;;;;;8.85;1.85;;;;;;;;;;5018486;28;20048;-80
2021/10/29 12:17:06;;;;;;;5.47;1.27;;;;;;;;;;5017175;28;20031;-80
2021/10/29 12:19:35;;;;;;;7.15;1.52;;;;;;;;;;5015260;28;20071;-80
2021/10/29 12:22:11;;;;;;;7.35;1.80;;;;;;;;;;5015137;28;20737;-79
2021/10/29 12:24:44;;;;;;;7.72;1.88;;;;;;;;;;5018555;28;20040;-81
2021/10/29 12:27:14;;;;;;;7.60;1.55;;;;;;;;;;5018129;28;20289;-81
2021/10/29 12:29:41;;;;;;;8.02;1.73;;;;;;;;;;5009820;28;20149;-81
2021/10/29 12:52:07;;;;;;;8.75;2.10;;;;;;;;;;5015204;28;20043;-79
2021/10/29 13:02:30;;;;;;;6.10;1.38;;;;;;;;;;5013115;28;20029;-81
2021/10/29 13:04:58;;;;;;;4.57;1.20;;;;;;;;;;5008618;28;20039;-81
2021/10/29 13:07:30;;;;;;;7.50;1.40;;;;;;;;;;5011636;28;20025;-80
2021/10/29 13:10:09;;;;;;;5.55;1.10;;;;;;;;;;5009399;28;20047;-80
2021/10/29 13:12:46;;;;;;;5.68;1.20;;;;;;;;;;5014842;28;20118;-80
2021/10/29 13:15:15;;;;;;;6.68;1.40;;;;;;;;;;5013554;28;20069;-79
2021/10/29 13:17:52;;;;;;;5.05;1.10;;;;;;;;;;5009846;28;20550;-79
2021/10/29 13:26:16;;;;;;;6.20;1.25;;;;;;;;;;5013028;28;20045;-77
2021/10/29 13:36:16;;;;;;;5.07;1.27;;;;;;;;;;5010930;28;20035;-79
2021/10/29 14:03:25;;;;;;;6.50;1.40;;;;;;;;;;5006157;28;20310;-79
2021/10/29 14:35:14;;;;;;;4.32;1.10;;;;;;;;;;5017766;28;21894;-80
2021/10/29 14:37:53;;;;;;;7.85;1.50;;;;;;;;;;5012357;28;20029;-80
2021/10/29 14:40:28;;;;;;;4.75;1.10;;;;;;;;;;5012575;28;20399;-79
2021/10/29 14:43:18;;;;;;;7.65;1.58;;;;;;;;;;5012659;28;20037;-80
2021/10/29 15:04:37;;;;;;;5.47;1.20;;;;;;;;;;5018925;28;20045;-81
2021/10/29 15:17:55;;;;;;;8.30;1.77;;;;;;;;;;5007656;28;20079;-80
2021/10/29 15:28:37;;;;;;;7.90;1.70;;;;;;;;;;5019221;28;20041;-80
2021/10/29 15:31:17;;;;;;;5.57;1.35;;;;;;;;;;5014578;28;20064;-81
2021/10/29 15:42:25;;;;;;;6.65;1.50;;;;;;;;;;4976308;28;20048;-80
2021/10/29 15:45:19;;;;;;;7.50;1.75;;;;;;;;;;4955498;28;20042;-79
2021/10/29 15:48:03;;;;;;;7.57;1.75;;;;;;;;;;4967200;28;20072;-79
2021/10/29 15:50:35;;;;;;;9.73;3.03;;;;;;;;;;4977505;28;20038;-79
2021/10/29 15:53:01;;;;;;;13.90;5.75;;;;;;;;;;4955031;28;20042;-80
2021/10/29 15:55:39;;;;;;;10.68;2.92;;;;;;;;;;4954581;28;20108;-86
2021/10/29 15:58:24;;;;;;;8.13;2.17;;;;;;;;;;4977486;28;20424;-83
2021/10/29 16:01:00;;;;;;;9.65;2.03;;;;;;;;;;4959975;28;20027;-82
2021/10/29 16:17:11;;;;;;;8.43;2.03;;;;;;;;;;5016281;28;20079;-81
2021/10/29 16:19:38;;;;;;;11.13;2.42;;;;;;;;;;5015607;28;20485;-81
2021/10/29 16:22:15;;;;;;;7.90;2.17;;;;;;;;;;5013199;28;20037;-79
2021/10/29 16:24:42;;;;;;;8.70;2.53;;;;;;;;;;5013351;28;20415;-80
2021/10/29 16:27:10;;;;;;;9.57;2.60;;;;;;;;;;5004566;28;20035;-80
2021/10/29 16:29:37;;;;;;;9.98;3.20;;;;;;;;;;5017933;28;20044;-81
2021/10/29 16:32:12;;;;;;;;;;;;;;;;;;5013781;28;20033;-81
2021/10/29 16:34:38;;;;;;;11.27;2.75;;;;;;;;;;5009630;28;19908;-80
2021/10/29 16:37:06;;;;;;;;;;;;;;;;;;5016839;28;20357;-80
2021/10/29 16:39:32;;;;;;;10.45;2.80;;;;;;;;;;5010435;28;19916;-81
2021/10/29 16:41:58;;;;;;;;;;;;;;;;;;5010781;28;20047;-81
2021/10/29 16:44:24;;;;;;;8.85;2.40;;;;;;;;;;5017908;28;20413;-81
2021/10/29 16:46:51;;;;;;;8.43;2.33;;;;;;;;;;5011164;28;20021;-79
2021/10/29 16:49:22;;;;;;;7.78;1.98;;;;;;;;;;5014730;28;20041;-80
2021/10/29 16:51:48;;;;;;;9.90;3.05;;;;;;;;;;5013763;28;20043;-81
2021/10/29 16:54:14;;;;;;;;;;;;;;;;;;5014481;28;20045;-81
2021/10/29 16:56:41;;;;;;;9.55;2.80;;;;;;;;;;5009312;28;20088;-80
2021/10/29 16:59:07;;;;;;;8.30;2.60;;;;;;;;;;5015446;28;20026;-81
2021/10/29 17:01:34;;;;;;;;;;;;;;;;;;5006394;28;20562;-80
2021/10/29 17:04:00;;;;;;;10.13;3.28;;;;;;;;;;4997454;28;19944;-80
2021/10/29 17:06:26;;;;;;;8.20;2.30;;;;;;;;;;5017123;28;20033;-82
2021/10/29 17:08:52;;;;;;;;;;;;;;;;;;5010091;28;21279;-81
2021/10/29 17:11:19;;;;;;;11.25;2.78;;;;;;;;;;4998557;28;19921;-79
2021/10/29 17:13:45;;;;;;;;;;;;;;;;;;4989132;28;20104;-79
2021/10/29 17:16:11;;;;;;;9.95;2.90;;;;;;;;;;4994501;28;20391;-80
2021/10/29 17:18:37;;;;;;;10.43;3.28;;;;;;;;;;4993045;28;20786;-78
2021/10/29 17:21:03;;;;;;;10.90;2.92;;;;;;;;;;4990234;28;20095;-80
2021/10/29 17:23:31;;;;;;;12.32;4.90;;;;;;;;;;4993916;28;20513;-79
2021/10/29 17:25:58;;;;;;;11.80;3.88;;;;;;;;;;4986443;28;20036;-79
2021/10/29 17:28:24;;;;;;;16.98;6.15;;;;;;;;;;4990997;28;20091;-79
2021/10/29 17:30:51;;;;;;;13.23;5.38;;;;;;;;;;4991867;28;20045;-78
2021/10/29 17:33:17;;;;;;;17.80;5.63;;;;;;;;;;5012030;28;20155;-79
2021/10/29 17:35:43;;;;;;;16.00;5.93;;;;;;;;;;5005852;28;20037;-77
2021/10/29 17:38:09;;;;;;;;;;;;;;;;;;5014068;28;20112;-78
2021/10/29 17:40:36;;;;;;;11.60;4.65;;;;;;;;;;5008810;28;19967;-78
2021/10/29 17:43:04;;;;;;;12.05;3.90;;;;;;;;;;5009286;28;20033;-79
2021/10/29 17:45:30;;;;;;;10.88;3.85;;;;;;;;;;5010584;28;20064;-79
2021/10/29 17:47:56;;;;;;;;;;;;;;;;;;5007255;28;20036;-80
2021/10/29 17:50:22;;;;;;;12.18;3.30;;;;;;;;;;5013209;28;19961;-81
2021/10/29 17:52:51;;;;;;;;;;;;;;;;;;5008786;28;20036;-78
2021/10/29 17:55:17;;;;;;;17.38;6.18;;;;;;;;;;5011538;28;19924;-79
2021/10/29 17:57:45;;;;;;;20.42;6.63;;;;;;;;;;5006335;28;20041;-79
2021/10/29 18:00:11;;;;;;;;;;;;;;;;;;5012174;28;20029;-80
2021/10/29 18:02:37;;;;;;;18.20;7.90;;;;;;;;;;5007796;28;19917;-78
2021/10/29 18:05:03;;;;;;;;;;;;;;;;;;5005669;28;20022;-80
2021/10/29 18:07:33;;;;;;;16.27;6.22;;;;;;;;;;5006750;28;19966;-79
2021/10/29 18:09:59;;;;;;;14.77;6.82;;;;;;;;;;5003938;28;22429;-79
2021/10/29 18:12:25;;;;;;;;;;;;;;;;;;5009471;28;20123;-78
2021/10/29 18:14:52;;;;;;;16.80;6.88;;;;;;;;;;5007321;28;19931;-78
2021/10/29 18:17:18;;;;;;;17.17;5.88;;;;;;;;;;5007299;28;20829;-79
2021/10/29 18:22:39;;;;;;;19.75;9.18;;;;;;;;;;5007785;28;20037;-81
2021/10/29 18:25:06;;;;;;;16.40;7.40;;;;;;;;;;5013957;28;20048;-84
2021/10/29 18:27:32;;;;;;;17.90;8.40;;;;;;;;;;5017927;28;20041;-84
2021/10/29 18:29:59;;;;;;;20.42;11.05;;;;;;;;;;5011717;28;20040;-79
2021/10/29 18:32:26;;;;;;;18.17;8.43;;;;;;;;;;5010609;28;20067;-81
2021/10/29 18:34:54;;;;;;;17.60;6.85;;;;;;;;;;5007072;28;20099;-81
2021/10/29 18:37:21;;;;;;;17.63;7.35;;;;;;;;;;5016915;28;20033;-79
2021/10/29 18:43:15;;;;;;;19.55;8.18;;;;;;;;;;4910697;28;20146;-81
2021/10/29 18:46:07;;;;;;;28.20;13.52;;;;;;;;;;4887391;28;20042;-81
2021/10/29 18:48:50;;;;;;;16.95;8.73;;;;;;;;;;4936292;28;20167;-81
2021/10/29 18:55:04;;;;;;;21.65;10.43;;;;;;;;;;4877306;29;20052;-79
2021/10/29 18:57:42;;;;;;;16.08;5.60;;;;;;;;;;4849708;29;20490;-79
2021/10/29 19:00:20;;;;;;;14.77;5.93;;;;;;;;;;4843343;29;20037;-78
2021/10/29 19:02:54;;;;;;;15.27;6.45;;;;;;;;;;4852022;29;20037;-79
2021/10/29 19:05:20;;;;;;;15.63;6.50;;;;;;;;;;4833822;29;20376;-78
2021/10/29 19:07:47;;;;;;;14.63;6.03;;;;;;;;;;4834062;29;20479;-78
2021/10/29 19:10:13;;;;;;;17.13;6.90;;;;;;;;;;4833226;29;20375;-79
2021/10/29 19:12:39;;;;;;;17.38;7.10;;;;;;;;;;4834392;29;20042;-78
2021/10/29 19:15:07;;;;;;;;;;;;;;;;;;4834913;29;20042;-79
2021/10/29 19:17:33;;;;;;;15.48;7.65;;;;;;;;;;4864667;29;19926;-78
2021/10/29 19:20:01;;;;;;;18.92;9.27;;;;;;;;;;4878221;29;20052;-79
2021/10/29 19:22:27;;;;;;;18.05;7.40;;;;;;;;;;4901292;29;20071;-78
2021/10/29 19:24:54;;;;;;;20.65;8.45;;;;;;;;;;4930196;29;20043;-78
2021/10/29 19:27:20;;;;;;;16.70;7.85;;;;;;;;;;4929572;29;20027;-79
2021/10/29 19:29:46;;;;;;;;;;;;;;;;;;4927561;29;20039;-79
2021/10/29 19:32:12;;;;;;;13.27;5.93;;;;;;;;;;4928178;29;19917;-80
2021/10/29 19:34:45;;;;;;;16.08;7.80;;;;;;;;;;4927338;29;20028;-80
2021/10/29 19:42:10;;;;;;;;;;;;;;;;;;4977138;28;20222;-80
2021/10/29 19:44:36;;;;;;;13.48;5.38;;;;;;;;;;5005722;28;19960;-79
2021/10/29 19:47:03;;;;;;;11.10;3.75;;;;;;;;;;4999257;28;20491;-80
2021/10/29 19:49:29;;;;;;;10.70;3.53;;;;;;;;;;5015805;28;20028;-79